Time;durP1;ratioP1;P1;durP2;ratioP2;P2;SDS_P1;SDS_P2;PMS_P1;PMS_P2;Temp;Humidity;BMP_temperature;BMP_pressure;BME280_temperature;BME280_humidity;BME280_pressure;Samples;Min_cycle;Max_cycle;Signal;HPM_P1;HPM_P2
2023/10/29 00:00:16;;;;;;;0.90;0.90;;;;;;;;;;4942044;29;20656;-87
2023/10/29 00:02:48;;;;;;;3.60;1.20;;;;;;;;;;4941839;29;20225;-86
2023/10/29 00:05:18;;;;;;;1.70;1.47;;;;;;;;;;4941430;29;20201;-86
2023/10/29 00:07:48;;;;;;;2.00;1.40;;;;;;;;;;4942880;29;20199;-85
2023/10/29 00:10:21;;;;;;;1.57;1.47;;;;;;;;;;4941514;29;20290;-85
2023/10/29 00:12:54;;;;;;;2.40;1.47;;;;;;;;;;4941423;29;20206;-85
2023/10/29 00:15:27;;;;;;;1.10;1.00;;;;;;;;;;4940032;29;20289;-85
2023/10/29 00:17:59;;;;;;;4.23;1.10;;;;;;;;;;4940689;29;20282;-85
2023/10/29 00:20:30;;;;;;;1.07;1.07;;;;;;;;;;4943157;29;20209;-85
2023/10/29 00:23:01;;;;;;;1.17;1.07;;;;;;;;;;4945698;29;20199;-85
2023/10/29 00:25:29;;;;;;;2.87;1.33;;;;;;;;;;4949860;29;20206;-84
2023/10/29 00:28:01;;;;;;;1.07;1.07;;;;;;;;;;4956522;29;20206;-85
2023/10/29 00:30:29;;;;;;;3.93;1.60;;;;;;;;;;4948611;29;20268;-84
2023/10/29 00:32:57;;;;;;;1.97;1.43;;;;;;;;;;4949265;29;20231;-85
2023/10/29 00:35:23;;;;;;;2.03;1.50;;;;;;;;;;4948584;29;20239;-85
2023/10/29 00:37:53;;;;;;;1.70;1.57;;;;;;;;;;4949839;29;20222;-85
2023/10/29 00:40:21;;;;;;;1.17;1.07;;;;;;;;;;4948578;29;20228;-85
2023/10/29 00:42:49;;;;;;;3.93;1.77;;;;;;;;;;4958550;28;20193;-86
2023/10/29 00:45:17;;;;;;;0.70;0.70;;;;;;;;;;4958716;28;20204;-86
2023/10/29 00:47:47;;;;;;;3.80;1.23;;;;;;;;;;4959324;28;20200;-88
2023/10/29 00:50:14;;;;;;;3.20;1.20;;;;;;;;;;4959187;28;20193;-84
2023/10/29 00:52:44;;;;;;;1.03;1.03;;;;;;;;;;4958741;28;20273;-86
2023/10/29 00:55:11;;;;;;;1.00;0.97;;;;;;;;;;4957930;28;20235;-84
2023/10/29 00:57:40;;;;;;;1.33;0.80;;;;;;;;;;4953514;29;20195;-84
2023/10/29 01:00:10;;;;;;;0.70;0.70;;;;;;;;;;4949087;29;20211;-84
2023/10/29 01:02:37;;;;;;;1.73;0.87;;;;;;;;;;4948596;29;20253;-85
2023/10/29 01:05:07;;;;;;;4.20;1.50;;;;;;;;;;4954848;29;20202;-84
2023/10/29 01:07:37;;;;;;;1.37;0.97;;;;;;;;;;4956021;28;20188;-85
2023/10/29 01:10:07;;;;;;;2.77;1.50;;;;;;;;;;4959006;28;20181;-87
2023/10/29 01:12:37;;;;;;;1.67;1.17;;;;;;;;;;4936335;29;20242;-84
2023/10/29 01:15:08;;;;;;;5.30;1.50;;;;;;;;;;4935220;29;20214;-87
2023/10/29 01:17:38;;;;;;;3.80;2.30;;;;;;;;;;4934840;29;20286;-84
2023/10/29 01:20:11;;;;;;;4.47;3.20;;;;;;;;;;4935587;29;20228;-85
2023/10/29 01:22:43;;;;;;;4.40;3.00;;;;;;;;;;4935239;29;20234;-86
2023/10/29 01:25:14;;;;;;;5.33;2.00;;;;;;;;;;4935113;29;20738;-86
2023/10/29 01:27:46;;;;;;;3.53;1.30;;;;;;;;;;4935953;29;20259;-88
2023/10/29 01:30:15;;;;;;;2.37;1.23;;;;;;;;;;4935253;29;20199;-86
2023/10/29 01:32:45;;;;;;;0.73;0.73;;;;;;;;;;4934294;29;20321;-86
2023/10/29 01:35:16;;;;;;;0.70;0.70;;;;;;;;;;4934726;29;20235;-86
2023/10/29 01:37:46;;;;;;;4.03;2.60;;;;;;;;;;4933972;29;20664;-85
2023/10/29 01:40:15;;;;;;;4.90;2.30;;;;;;;;;;4934781;29;20200;-85
2023/10/29 01:42:45;;;;;;;2.50;1.70;;;;;;;;;;4934567;29;20237;-85
2023/10/29 01:45:17;;;;;;;3.77;2.00;;;;;;;;;;4933029;29;20720;-85
2023/10/29 01:47:46;;;;;;;2.60;1.70;;;;;;;;;;4936247;29;20643;-86
2023/10/29 01:50:15;;;;;;;4.03;2.00;;;;;;;;;;4938581;29;20683;-86
2023/10/29 01:52:57;;;;;;;4.90;2.10;;;;;;;;;;4938359;29;20231;-85
2023/10/29 01:55:27;;;;;;;4.23;1.90;;;;;;;;;;4938303;29;20645;-85
2023/10/29 01:57:55;;;;;;;3.83;1.93;;;;;;;;;;4938575;29;20231;-86
2023/10/29 02:00:27;;;;;;;3.97;1.10;;;;;;;;;;4937872;29;20329;-87
2023/10/29 02:02:57;;;;;;;6.30;1.80;;;;;;;;;;4938087;29;20296;-85
2023/10/29 02:05:26;;;;;;;1.40;1.27;;;;;;;;;;4937226;29;20590;-86
2023/10/29 02:07:55;;;;;;;1.70;1.43;;;;;;;;;;4937927;29;20206;-86
2023/10/29 02:10:25;;;;;;;3.43;1.40;;;;;;;;;;4937763;29;20767;-86
2023/10/29 02:13:00;;;;;;;2.57;1.10;;;;;;;;;;4937455;29;20227;-85
2023/10/29 02:15:29;;;;;;;2.40;1.63;;;;;;;;;;4937313;29;20211;-86
2023/10/29 02:18:00;;;;;;;1.70;1.60;;;;;;;;;;4938316;29;20200;-85
2023/10/29 02:20:31;;;;;;;1.63;1.37;;;;;;;;;;4937850;29;20283;-86
2023/10/29 02:23:05;;;;;;;2.17;1.50;;;;;;;;;;4939897;29;20205;-85
2023/10/29 02:25:34;;;;;;;2.80;1.93;;;;;;;;;;4939311;29;20264;-84
2023/10/29 02:28:05;;;;;;;3.03;1.50;;;;;;;;;;4938556;29;20216;-86
2023/10/29 02:30:35;;;;;;;2.23;1.13;;;;;;;;;;4938412;29;20214;-86
2023/10/29 02:33:05;;;;;;;1.20;1.10;;;;;;;;;;4944327;29;20231;-85
2023/10/29 02:35:34;;;;;;;1.10;0.90;;;;;;;;;;4958832;28;20254;-86
2023/10/29 02:38:05;;;;;;;2.10;1.43;;;;;;;;;;4953438;28;20197;-86
2023/10/29 02:40:33;;;;;;;2.40;0.93;;;;;;;;;;4937766;29;20222;-86
2023/10/29 02:43:03;;;;;;;1.90;1.10;;;;;;;;;;4937789;29;20271;-86
2023/10/29 02:45:35;;;;;;;1.53;1.07;;;;;;;;;;4938007;29;20631;-86
2023/10/29 02:48:05;;;;;;;2.23;1.67;;;;;;;;;;4937671;29;20199;-86
2023/10/29 02:50:34;;;;;;;4.33;0.97;;;;;;;;;;4937765;29;20210;-86
2023/10/29 02:53:05;;;;;;;0.90;0.90;;;;;;;;;;4937689;29;20215;-87
2023/10/29 02:55:33;;;;;;;1.33;0.80;;;;;;;;;;4938382;29;20200;-85
2023/10/29 02:58:02;;;;;;;0.90;0.90;;;;;;;;;;4937485;29;20215;-87
2023/10/29 03:00:33;;;;;;;0.73;0.73;;;;;;;;;;4937823;29;20210;-85
2023/10/29 03:03:04;;;;;;;5.13;1.80;;;;;;;;;;4937600;29;20235;-85
2023/10/29 03:05:32;;;;;;;1.20;1.20;;;;;;;;;;4937176;29;20677;-86
2023/10/29 03:08:00;;;;;;;3.53;1.80;;;;;;;;;;4937041;29;20247;-86
2023/10/29 03:10:32;;;;;;;1.93;1.63;;;;;;;;;;4937459;29;20231;-85
2023/10/29 03:13:00;;;;;;;1.67;1.57;;;;;;;;;;4937581;29;20238;-85
2023/10/29 03:15:29;;;;;;;2.20;2.07;;;;;;;;;;4936798;29;20199;-87
2023/10/29 03:18:00;;;;;;;2.30;1.97;;;;;;;;;;4937724;29;20690;-85
2023/10/29 03:20:29;;;;;;;2.50;2.10;;;;;;;;;;4937304;29;20261;-86
2023/10/29 03:22:57;;;;;;;1.80;1.70;;;;;;;;;;4936894;29;20207;-86
2023/10/29 03:25:26;;;;;;;1.80;1.67;;;;;;;;;;4937833;29;20211;-86
2023/10/29 03:27:57;;;;;;;5.33;1.73;;;;;;;;;;4937205;29;20616;-86
2023/10/29 03:30:26;;;;;;;1.93;1.83;;;;;;;;;;4937273;29;20255;-87
2023/10/29 03:32:54;;;;;;;2.37;1.70;;;;;;;;;;4936764;29;20235;-86
2023/10/29 03:35:22;;;;;;;3.83;1.70;;;;;;;;;;4936362;29;20307;-86
2023/10/29 03:37:53;;;;;;;4.13;1.40;;;;;;;;;;4937061;29;20278;-86
2023/10/29 03:40:20;;;;;;;1.63;1.23;;;;;;;;;;4936778;29;20196;-86
2023/10/29 03:42:51;;;;;;;1.70;1.60;;;;;;;;;;4937213;29;20192;-85
2023/10/29 03:45:22;;;;;;;1.30;1.30;;;;;;;;;;4938131;29;20200;-84
2023/10/29 03:47:53;;;;;;;1.50;1.40;;;;;;;;;;4939251;29;20650;-84
2023/10/29 03:50:27;;;;;;;1.90;1.70;;;;;;;;;;4938437;29;20211;-85
2023/10/29 03:52:54;;;;;;;1.37;1.33;;;;;;;;;;4956992;28;20215;-87
2023/10/29 03:55:23;;;;;;;1.37;1.37;;;;;;;;;;4959748;28;20195;-88
2023/10/29 03:57:54;;;;;;;4.40;2.20;;;;;;;;;;4959636;28;20263;-87
2023/10/29 04:00:24;;;;;;;3.47;2.13;;;;;;;;;;4955679;28;20195;-86
2023/10/29 04:02:55;;;;;;;1.47;1.37;;;;;;;;;;4939359;29;20228;-85
2023/10/29 04:05:24;;;;;;;3.40;1.97;;;;;;;;;;4936134;29;20700;-86
2023/10/29 04:07:54;;;;;;;5.33;1.97;;;;;;;;;;4936995;29;20238;-87
2023/10/29 04:10:26;;;;;;;5.87;1.57;;;;;;;;;;4940372;29;20267;-85
2023/10/29 04:12:56;;;;;;;1.27;1.17;;;;;;;;;;4946463;29;20235;-87
2023/10/29 04:15:27;;;;;;;2.43;1.60;;;;;;;;;;4943807;29;20203;-87
2023/10/29 04:17:56;;;;;;;7.77;1.17;;;;;;;;;;4939443;29;20302;-86
2023/10/29 04:20:27;;;;;;;6.50;1.70;;;;;;;;;;4936614;29;20598;-85
2023/10/29 04:22:55;;;;;;;5.70;1.60;;;;;;;;;;4937002;29;20289;-85
2023/10/29 04:25:23;;;;;;;3.83;1.63;;;;;;;;;;4936329;29;20207;-87
2023/10/29 04:27:53;;;;;;;2.17;1.23;;;;;;;;;;4935900;29;20650;-86
2023/10/29 04:30:22;;;;;;;2.73;1.30;;;;;;;;;;4939016;29;20238;-86
2023/10/29 04:32:51;;;;;;;1.80;1.70;;;;;;;;;;4947927;29;20267;-87
2023/10/29 04:35:20;;;;;;;4.03;2.40;;;;;;;;;;4956318;29;20231;-86
2023/10/29 04:37:51;;;;;;;4.80;1.90;;;;;;;;;;4936735;29;20248;-86
2023/10/29 04:40:19;;;;;;;1.90;1.80;;;;;;;;;;4935819;29;20211;-85
2023/10/29 04:42:47;;;;;;;2.03;1.93;;;;;;;;;;4936650;29;20199;-86
2023/10/29 04:45:16;;;;;;;1.37;1.33;;;;;;;;;;4943648;29;20665;-86
2023/10/29 04:47:46;;;;;;;4.43;2.30;;;;;;;;;;4941255;29;20653;-86
2023/10/29 04:50:26;;;;;;;2.33;1.77;;;;;;;;;;4937112;29;20267;-85
2023/10/29 04:53:02;;;;;;;8.20;1.87;;;;;;;;;;4937871;29;20211;-85
2023/10/29 04:55:30;;;;;;;2.27;1.63;;;;;;;;;;4936601;29;20613;-86
2023/10/29 04:58:00;;;;;;;2.27;2.17;;;;;;;;;;4936699;29;20215;-87
2023/10/29 05:00:29;;;;;;;1.90;1.80;;;;;;;;;;4936761;29;20274;-88
2023/10/29 05:03:02;;;;;;;2.93;2.27;;;;;;;;;;4934847;29;20231;-86
2023/10/29 05:05:42;;;;;;;8.17;1.77;;;;;;;;;;4936612;29;20210;-86
2023/10/29 05:08:15;;;;;;;2.30;1.70;;;;;;;;;;4937868;29;20218;-86
2023/10/29 05:10:44;;;;;;;2.67;1.90;;;;;;;;;;4937635;29;20223;-86
2023/10/29 05:16:15;;;;;;;3.47;2.53;;;;;;;;;;4936448;29;20215;-85
2023/10/29 05:18:47;;;;;;;2.03;1.93;;;;;;;;;;4937263;29;20203;-85
2023/10/29 05:21:26;;;;;;;7.00;2.30;;;;;;;;;;4935414;29;20211;-84
2023/10/29 05:24:03;;;;;;;2.97;2.33;;;;;;;;;;4937115;29;20209;-84
2023/10/29 05:26:41;;;;;;;2.77;2.47;;;;;;;;;;4935576;29;20700;-86
2023/10/29 05:29:17;;;;;;;3.90;2.40;;;;;;;;;;4936643;29;20203;-85
2023/10/29 05:31:46;;;;;;;2.43;2.20;;;;;;;;;;4937005;29;20198;-84
2023/10/29 05:34:18;;;;;;;2.47;2.23;;;;;;;;;;4936750;29;20236;-86
2023/10/29 05:39:47;;;;;;;2.80;2.50;;;;;;;;;;4912130;29;20206;-84
2023/10/29 05:42:22;;;;;;;7.15;2.75;;;;;;;;;;4918491;29;20851;-85
2023/10/29 05:44:58;;;;;;;4.85;2.50;;;;;;;;;;4917959;29;20844;-86
2023/10/29 05:48:01;;;;;;;5.10;2.33;;;;;;;;;;4917915;29;20192;-86
2023/10/29 05:50:32;;;;;;;2.75;2.50;;;;;;;;;;4916513;29;20295;-86
2023/10/29 05:53:03;;;;;;;2.50;2.38;;;;;;;;;;4917867;29;20220;-85
2023/10/29 05:55:39;;;;;;;3.90;2.40;;;;;;;;;;4917675;29;20192;-87
2023/10/29 05:58:09;;;;;;;6.95;2.85;;;;;;;;;;4916955;29;20263;-85
2023/10/29 06:00:37;;;;;;;2.47;2.38;;;;;;;;;;4917529;29;20693;-85
2023/10/29 06:03:07;;;;;;;2.53;2.33;;;;;;;;;;4917702;29;20709;-85
2023/10/29 06:05:40;;;;;;;3.35;2.40;;;;;;;;;;4917455;29;20201;-85
2023/10/29 06:08:11;;;;;;;5.05;2.20;;;;;;;;;;4917834;29;20205;-85
2023/10/29 06:10:43;;;;;;;3.95;3.00;;;;;;;;;;4917976;29;20204;-85
2023/10/29 06:13:15;;;;;;;2.83;2.40;;;;;;;;;;4931632;29;20236;-86
2023/10/29 06:15:43;;;;;;;4.82;3.53;;;;;;;;;;4918047;29;20204;-87
2023/10/29 06:18:16;;;;;;;13.10;7.70;;;;;;;;;;4917900;29;20204;-86
2023/10/29 06:20:58;;;;;;;3.17;2.38;;;;;;;;;;4918316;29;20196;-85
2023/10/29 06:23:26;;;;;;;5.82;2.80;;;;;;;;;;4921784;29;20193;-86
2023/10/29 06:26:00;;;;;;;5.75;5.18;;;;;;;;;;4933111;29;20200;-84
2023/10/29 06:28:30;;;;;;;8.50;6.47;;;;;;;;;;4932860;29;20613;-87
2023/10/29 06:31:00;;;;;;;2.10;2.00;;;;;;;;;;4918189;29;20597;-85
2023/10/29 06:33:29;;;;;;;7.88;4.03;;;;;;;;;;4918052;29;20235;-87
2023/10/29 06:36:00;;;;;;;3.72;3.45;;;;;;;;;;4933518;29;20234;-87
2023/10/29 06:38:31;;;;;;;4.97;1.92;;;;;;;;;;4949829;29;20282;-87
2023/10/29 06:41:02;;;;;;;3.58;2.15;;;;;;;;;;4959134;29;20503;-87
2023/10/29 06:43:30;;;;;;;7.35;2.20;;;;;;;;;;4958954;28;20186;-87
2023/10/29 06:46:02;;;;;;;2.25;2.08;;;;;;;;;;4961659;28;20182;-86
2023/10/29 06:48:31;;;;;;;3.25;2.58;;;;;;;;;;4944657;29;20200;-87
2023/10/29 06:51:00;;;;;;;2.58;2.47;;;;;;;;;;4938401;29;20295;-87
2023/10/29 06:53:30;;;;;;;3.17;1.90;;;;;;;;;;4940939;29;20282;-86
2023/10/29 06:56:04;;;;;;;4.72;3.22;;;;;;;;;;4939544;29;20214;-86
2023/10/29 06:58:31;;;;;;;3.20;2.90;;;;;;;;;;4938526;29;20195;-87
2023/10/29 07:01:04;;;;;;;2.25;2.15;;;;;;;;;;4939390;29;20200;-86
2023/10/29 07:03:35;;;;;;;4.32;1.98;;;;;;;;;;4939209;29;20219;-85
2023/10/29 07:06:08;;;;;;;2.17;2.08;;;;;;;;;;4938432;29;20689;-85
2023/10/29 07:08:37;;;;;;;2.60;2.15;;;;;;;;;;4937888;29;20196;-85
2023/10/29 07:11:16;;;;;;;2.78;2.42;;;;;;;;;;4936860;29;20199;-86
2023/10/29 07:13:46;;;;;;;2.65;2.45;;;;;;;;;;4937590;29;20254;-88
2023/10/29 07:16:19;;;;;;;2.40;2.20;;;;;;;;;;4938831;29;20685;-87
2023/10/29 07:18:49;;;;;;;1.73;1.63;;;;;;;;;;4936951;29;20267;-86
2023/10/29 07:21:17;;;;;;;2.22;2.03;;;;;;;;;;4937668;29;20637;-86
2023/10/29 07:23:45;;;;;;;8.38;1.90;;;;;;;;;;4937159;29;20264;-86
2023/10/29 07:26:15;;;;;;;6.32;2.08;;;;;;;;;;4936670;29;20266;-86
2023/10/29 07:28:44;;;;;;;2.20;2.10;;;;;;;;;;4937409;29;20643;-86
2023/10/29 07:31:12;;;;;;;3.00;2.75;;;;;;;;;;4938286;29;20207;-89
2023/10/29 07:33:47;;;;;;;4.35;2.92;;;;;;;;;;4935832;29;20326;-86
2023/10/29 07:36:18;;;;;;;1.98;1.88;;;;;;;;;;4937357;29;20247;-85
2023/10/29 07:38:50;;;;;;;1.92;1.73;;;;;;;;;;4937829;29;20192;-85
2023/10/29 07:41:20;;;;;;;2.47;2.28;;;;;;;;;;4936311;29;20230;-86
2023/10/29 07:43:50;;;;;;;5.03;1.90;;;;;;;;;;4937566;29;20591;-86
2023/10/29 07:46:20;;;;;;;2.28;2.10;;;;;;;;;;4937053;29;20287;-85
2023/10/29 07:48:48;;;;;;;4.13;2.05;;;;;;;;;;4936672;29;20202;-86
2023/10/29 07:51:17;;;;;;;4.70;2.17;;;;;;;;;;4936781;29;20199;-87
2023/10/29 07:53:45;;;;;;;4.30;2.47;;;;;;;;;;4937501;29;20277;-86
2023/10/29 07:56:19;;;;;;;4.25;2.67;;;;;;;;;;4937156;29;20211;-86
2023/10/29 07:58:48;;;;;;;2.65;2.28;;;;;;;;;;4937801;29;20281;-87
2023/10/29 08:01:17;;;;;;;4.18;2.00;;;;;;;;;;4937281;29;20203;-87
2023/10/29 08:03:48;;;;;;;5.85;2.30;;;;;;;;;;4937156;29;20203;-87
2023/10/29 08:06:15;;;;;;;1.98;1.88;;;;;;;;;;4936766;29;20282;-87
2023/10/29 08:08:43;;;;;;;2.22;2.03;;;;;;;;;;4936550;29;20568;-86
2023/10/29 08:11:19;;;;;;;3.33;1.63;;;;;;;;;;4936603;29;20613;-87
2023/10/29 08:13:51;;;;;;;2.70;1.65;;;;;;;;;;4936347;29;20215;-86
2023/10/29 08:16:20;;;;;;;4.35;2.30;;;;;;;;;;4935874;29;20207;-85
2023/10/29 08:18:50;;;;;;;1.98;1.15;;;;;;;;;;4936450;29;20238;-87
2023/10/29 08:21:19;;;;;;;1.65;1.55;;;;;;;;;;4937091;29;20637;-86
2023/10/29 08:23:53;;;;;;;5.95;1.73;;;;;;;;;;4936933;29;20204;-87
2023/10/29 08:26:24;;;;;;;3.35;1.60;;;;;;;;;;4937642;29;20195;-87
2023/10/29 08:28:56;;;;;;;2.58;1.50;;;;;;;;;;4941740;29;20216;-86
2023/10/29 08:31:25;;;;;;;6.07;1.95;;;;;;;;;;4950330;29;20210;-83
2023/10/29 08:33:55;;;;;;;3.92;2.00;;;;;;;;;;4947450;29;20327;-84
2023/10/29 08:36:25;;;;;;;5.22;2.28;;;;;;;;;;4936585;29;20236;-87
2023/10/29 08:38:56;;;;;;;2.40;2.25;;;;;;;;;;4935409;29;20204;-86
2023/10/29 08:41:24;;;;;;;3.03;2.00;;;;;;;;;;4936519;29;20192;-87
2023/10/29 08:43:56;;;;;;;3.33;1.90;;;;;;;;;;4936656;29;20314;-86
2023/10/29 08:46:27;;;;;;;2.85;2.10;;;;;;;;;;4935318;29;20199;-85
2023/10/29 08:48:55;;;;;;;3.95;1.95;;;;;;;;;;4936702;29;20206;-86
2023/10/29 08:51:23;;;;;;;5.35;2.10;;;;;;;;;;4936771;29;20211;-87
2023/10/29 08:53:57;;;;;;;3.70;1.90;;;;;;;;;;4936569;29;20302;-86
2023/10/29 08:56:27;;;;;;;3.70;2.33;;;;;;;;;;4935575;29;20203;-86
2023/10/29 08:59:10;;;;;;;4.30;2.35;;;;;;;;;;4936966;29;20266;-84
2023/10/29 09:01:41;;;;;;;2.97;2.67;;;;;;;;;;4935709;29;20290;-86
2023/10/29 09:04:11;;;;;;;5.05;2.10;;;;;;;;;;4936408;29;20650;-86
2023/10/29 09:06:43;;;;;;;12.38;5.82;;;;;;;;;;4936057;29;20203;-86
2023/10/29 09:09:12;;;;;;;3.15;2.10;;;;;;;;;;4935471;29;20219;-87
2023/10/29 09:11:43;;;;;;;2.70;2.17;;;;;;;;;;4935752;29;20264;-85
2023/10/29 09:14:13;;;;;;;2.70;1.98;;;;;;;;;;4936000;29;20311;-86
2023/10/29 09:16:41;;;;;;;3.00;1.80;;;;;;;;;;4935870;29;20207;-86
2023/10/29 09:19:10;;;;;;;4.40;1.70;;;;;;;;;;4935893;29;20255;-86
2023/10/29 09:21:38;;;;;;;1.70;1.60;;;;;;;;;;4935721;29;20199;-87
2023/10/29 09:24:07;;;;;;;3.72;1.60;;;;;;;;;;4935127;29;20226;-87
2023/10/29 09:26:42;;;;;;;1.73;1.63;;;;;;;;;;4936293;29;20207;-87
2023/10/29 09:29:11;;;;;;;3.15;1.80;;;;;;;;;;4941364;29;20549;-86
2023/10/29 09:31:44;;;;;;;3.25;1.77;;;;;;;;;;4950244;29;20282;-86
2023/10/29 09:34:14;;;;;;;2.42;1.90;;;;;;;;;;4955488;29;20213;-86
2023/10/29 09:36:44;;;;;;;2.40;1.67;;;;;;;;;;4956261;28;20239;-86
2023/10/29 09:39:17;;;;;;;2.63;2.15;;;;;;;;;;4950476;29;20200;-87
2023/10/29 09:41:45;;;;;;;3.33;1.50;;;;;;;;;;4936155;29;20226;-86
2023/10/29 09:44:18;;;;;;;2.88;1.60;;;;;;;;;;4935447;29;20282;-86
2023/10/29 09:46:54;;;;;;;4.75;1.45;;;;;;;;;;4935794;29;20258;-85
2023/10/29 09:49:21;;;;;;;1.25;1.00;;;;;;;;;;4934919;29;20196;-87
2023/10/29 09:51:51;;;;;;;1.20;1.10;;;;;;;;;;4935427;29;20603;-87
2023/10/29 09:54:20;;;;;;;6.93;1.27;;;;;;;;;;4935314;29;20223;-87
2023/10/29 09:56:49;;;;;;;3.10;1.50;;;;;;;;;;4936731;29;20235;-86
2023/10/29 09:59:21;;;;;;;1.80;1.60;;;;;;;;;;4936019;29;20204;-85
2023/10/29 10:01:54;;;;;;;2.92;1.33;;;;;;;;;;4934676;29;20226;-87
2023/10/29 10:04:35;;;;;;;1.55;1.25;;;;;;;;;;4935464;29;20270;-86
2023/10/29 10:07:10;;;;;;;2.50;1.52;;;;;;;;;;4933948;29;20215;-86
2023/10/29 10:09:56;;;;;;;3.40;1.30;;;;;;;;;;4938500;29;20262;-88
2023/10/29 10:12:27;;;;;;;4.35;2.10;;;;;;;;;;4938919;29;20667;-87
2023/10/29 10:15:13;;;;;;;4.10;1.15;;;;;;;;;;4939648;29;20737;-86
2023/10/29 10:17:45;;;;;;;1.92;1.30;;;;;;;;;;4939852;29;20204;-85
2023/10/29 10:20:14;;;;;;;2.95;1.33;;;;;;;;;;4940583;29;20202;-85
2023/10/29 10:22:47;;;;;;;1.75;1.20;;;;;;;;;;4939045;29;20311;-87
2023/10/29 10:25:23;;;;;;;2.33;1.75;;;;;;;;;;4939330;29;20195;-86
2023/10/29 10:27:54;;;;;;;3.72;2.10;;;;;;;;;;4938490;29;20567;-85
2023/10/29 10:30:30;;;;;;;1.80;1.60;;;;;;;;;;4938793;29;20245;-86
2023/10/29 10:33:11;;;;;;;9.15;4.15;;;;;;;;;;4939373;29;20188;-87
2023/10/29 10:35:56;;;;;;;1.52;1.10;;;;;;;;;;4938005;29;20247;-85
2023/10/29 10:38:25;;;;;;;1.88;1.15;;;;;;;;;;4938125;29;20211;-88
2023/10/29 10:40:58;;;;;;;1.10;0.95;;;;;;;;;;4938024;29;20561;-87
2023/10/29 10:43:28;;;;;;;1.30;1.05;;;;;;;;;;4937866;29;20614;-86
2023/10/29 10:45:56;;;;;;;3.33;1.40;;;;;;;;;;4937777;29;20204;-86
2023/10/29 10:48:25;;;;;;;1.48;1.08;;;;;;;;;;4938751;29;20206;-86
2023/10/29 10:50:55;;;;;;;0.93;0.85;;;;;;;;;;4938440;29;20215;-85
2023/10/29 10:53:25;;;;;;;6.53;1.27;;;;;;;;;;4938435;29;20195;-85
2023/10/29 10:55:56;;;;;;;1.77;1.67;;;;;;;;;;4938860;29;20235;-85
2023/10/29 10:58:24;;;;;;;3.80;1.30;;;;;;;;;;4942932;29;20208;-84
2023/10/29 11:00:52;;;;;;;2.25;1.20;;;;;;;;;;4955578;29;20203;-85
2023/10/29 11:03:21;;;;;;;5.15;1.30;;;;;;;;;;4954751;29;20237;-86
2023/10/29 11:05:53;;;;;;;0.98;0.90;;;;;;;;;;4953653;29;20272;-86
2023/10/29 11:08:21;;;;;;;1.80;0.95;;;;;;;;;;4953749;29;20704;-85
2023/10/29 11:10:53;;;;;;;1.73;0.80;;;;;;;;;;4952667;29;20200;-87
2023/10/29 11:13:26;;;;;;;1.42;0.90;;;;;;;;;;4953762;29;20215;-86
2023/10/29 11:16:01;;;;;;;1.02;1.02;;;;;;;;;;4953374;29;20366;-86
2023/10/29 11:18:31;;;;;;;0.85;0.60;;;;;;;;;;4953766;28;20230;-85
2023/10/29 11:21:03;;;;;;;2.60;0.85;;;;;;;;;;4960273;28;20207;-88
2023/10/29 11:23:32;;;;;;;3.08;1.17;;;;;;;;;;4960591;28;20199;-87
2023/10/29 11:26:33;;;;;;;1.33;1.23;;;;;;;;;;4960497;28;20219;-88
2023/10/29 11:29:05;;;;;;;1.02;1.02;;;;;;;;;;4938800;28;20198;-87
2023/10/29 11:31:33;;;;;;;2.70;1.00;;;;;;;;;;4959608;28;20179;-87
2023/10/29 11:34:22;;;;;;;0.70;0.70;;;;;;;;;;4960450;28;20199;-87
2023/10/29 11:36:58;;;;;;;2.47;0.90;;;;;;;;;;4929748;29;20208;-85
2023/10/29 11:39:33;;;;;;;0.98;0.80;;;;;;;;;;4920455;29;20580;-86
2023/10/29 11:42:02;;;;;;;2.03;0.98;;;;;;;;;;4919371;29;20216;-86
2023/10/29 11:44:32;;;;;;;2.20;0.90;;;;;;;;;;4919171;29;20271;-87
2023/10/29 11:47:11;;;;;;;1.20;1.20;;;;;;;;;;4918809;29;20204;-85
2023/10/29 11:49:56;;;;;;;1.17;0.60;;;;;;;;;;4919041;29;20663;-86
2023/10/29 11:52:45;;;;;;;1.25;0.70;;;;;;;;;;4918628;29;20583;-86
2023/10/29 11:55:13;;;;;;;0.82;0.68;;;;;;;;;;4917080;29;20235;-85
2023/10/29 11:57:45;;;;;;;1.63;0.60;;;;;;;;;;4918715;29;20640;-88
2023/10/29 12:00:15;;;;;;;0.98;0.70;;;;;;;;;;4918107;29;20200;-88
2023/10/29 12:02:46;;;;;;;2.10;0.80;;;;;;;;;;4917893;29;20733;-86
2023/10/29 12:05:16;;;;;;;4.05;1.00;;;;;;;;;;4918332;29;20189;-87
2023/10/29 12:08:10;;;;;;;4.10;2.05;;;;;;;;;;4919577;29;20208;-86
2023/10/29 12:10:48;;;;;;;1.52;1.42;;;;;;;;;;4924208;29;20675;-85
2023/10/29 12:13:18;;;;;;;2.15;1.15;;;;;;;;;;4931097;29;20215;-85
2023/10/29 12:15:46;;;;;;;0.57;0.57;;;;;;;;;;4926198;29;20236;-87
2023/10/29 12:18:21;;;;;;;1.23;0.70;;;;;;;;;;4920965;29;20204;-86
2023/10/29 12:20:59;;;;;;;1.60;0.80;;;;;;;;;;4920136;29;20195;-87
2023/10/29 12:23:31;;;;;;;0.50;0.50;;;;;;;;;;4921145;29;20208;-87
2023/10/29 12:26:01;;;;;;;1.05;0.55;;;;;;;;;;4932037;29;20204;-87
2023/10/29 12:28:29;;;;;;;1.08;0.50;;;;;;;;;;4937433;29;20212;-87
2023/10/29 12:31:00;;;;;;;0.73;0.73;;;;;;;;;;4939893;29;20201;-87
2023/10/29 12:33:33;;;;;;;2.28;0.55;;;;;;;;;;4925779;29;20678;-87
2023/10/29 12:36:08;;;;;;;0.32;0.32;;;;;;;;;;4932990;29;20239;-85
2023/10/29 12:38:44;;;;;;;1.38;0.65;;;;;;;;;;4938885;29;20223;-87
2023/10/29 12:41:19;;;;;;;0.40;0.40;;;;;;;;;;4940016;29;20214;-85
2023/10/29 12:43:49;;;;;;;0.45;0.45;;;;;;;;;;4938727;29;20242;-86
2023/10/29 12:46:16;;;;;;;1.67;0.65;;;;;;;;;;4938034;29;20290;-87
2023/10/29 12:49:01;;;;;;;2.58;0.60;;;;;;;;;;4936148;29;20211;-86
2023/10/29 12:51:36;;;;;;;0.93;0.60;;;;;;;;;;4936953;29;20203;-86
2023/10/29 12:54:29;;;;;;;0.52;0.52;;;;;;;;;;4936271;29;20194;-86
2023/10/29 12:57:23;;;;;;;1.75;0.40;;;;;;;;;;4933819;29;20286;-87
2023/10/29 13:00:06;;;;;;;0.47;0.47;;;;;;;;;;4934578;29;20263;-86
2023/10/29 13:02:36;;;;;;;0.52;0.50;;;;;;;;;;4936003;29;20239;-86
2023/10/29 13:05:05;;;;;;;1.50;0.47;;;;;;;;;;4936097;29;20215;-86
2023/10/29 13:07:40;;;;;;;1.00;0.50;;;;;;;;;;4936072;29;20294;-86
2023/10/29 13:10:07;;;;;;;0.47;0.47;;;;;;;;;;4936364;29;20235;-84
2023/10/29 13:12:37;;;;;;;2.65;0.45;;;;;;;;;;4935256;29;20249;-85
2023/10/29 13:15:06;;;;;;;0.57;0.50;;;;;;;;;;4935677;29;20269;-86
2023/10/29 13:17:38;;;;;;;0.90;0.60;;;;;;;;;;4935418;29;20200;-86
2023/10/29 13:20:11;;;;;;;0.60;0.60;;;;;;;;;;4935377;29;20206;-86
2023/10/29 13:22:42;;;;;;;0.40;0.40;;;;;;;;;;4935893;29;20580;-87
2023/10/29 13:25:12;;;;;;;0.55;0.45;;;;;;;;;;4947667;29;20203;-85
2023/10/29 13:27:44;;;;;;;0.90;0.55;;;;;;;;;;4947165;29;20199;-86
2023/10/29 13:30:18;;;;;;;1.08;0.70;;;;;;;;;;4939684;29;20286;-86
2023/10/29 13:32:48;;;;;;;1.73;0.70;;;;;;;;;;4935746;29;20210;-87
2023/10/29 13:35:17;;;;;;;0.45;0.45;;;;;;;;;;4934511;29;20661;-86
2023/10/29 13:37:47;;;;;;;0.70;0.70;;;;;;;;;;4935221;29;20748;-86
2023/10/29 13:40:16;;;;;;;1.60;0.80;;;;;;;;;;4935951;29;20200;-86
2023/10/29 13:42:47;;;;;;;1.15;0.45;;;;;;;;;;4936453;29;20221;-86
2023/10/29 13:45:15;;;;;;;0.75;0.60;;;;;;;;;;4939057;29;20208;-87
2023/10/29 13:47:44;;;;;;;1.25;0.43;;;;;;;;;;4939264;29;20282;-87
2023/10/29 13:50:14;;;;;;;0.80;0.50;;;;;;;;;;4938332;29;20243;-87
2023/10/29 13:52:42;;;;;;;1.00;0.60;;;;;;;;;;4939628;29;20572;-88
2023/10/29 13:55:11;;;;;;;0.95;0.70;;;;;;;;;;4939856;29;20242;-86
2023/10/29 13:57:40;;;;;;;5.50;3.20;;;;;;;;;;4939210;29;20279;-87
2023/10/29 14:00:09;;;;;;;2.33;1.48;;;;;;;;;;4939052;29;20211;-87
2023/10/29 14:02:37;;;;;;;2.15;0.80;;;;;;;;;;4938134;29;20231;-87
2023/10/29 14:05:07;;;;;;;1.95;0.73;;;;;;;;;;4937649;29;20271;-86
2023/10/29 14:07:35;;;;;;;1.13;0.73;;;;;;;;;;4939229;29;20216;-85
2023/10/29 14:10:03;;;;;;;0.82;0.82;;;;;;;;;;4938512;29;20328;-86
2023/10/29 14:12:35;;;;;;;0.70;0.70;;;;;;;;;;4937184;29;20267;-86
2023/10/29 14:15:05;;;;;;;2.17;0.90;;;;;;;;;;4937828;29;20212;-86
2023/10/29 14:17:35;;;;;;;1.15;0.85;;;;;;;;;;4938007;29;20206;-87
2023/10/29 14:20:06;;;;;;;1.50;1.23;;;;;;;;;;4938122;29;20286;-87
2023/10/29 14:22:37;;;;;;;0.70;0.70;;;;;;;;;;4937532;29;20222;-86
2023/10/29 14:25:07;;;;;;;2.75;0.70;;;;;;;;;;4938037;29;20266;-86
2023/10/29 14:27:37;;;;;;;2.92;1.05;;;;;;;;;;4937082;29;20630;-86
2023/10/29 14:30:07;;;;;;;1.40;0.85;;;;;;;;;;4938228;29;20283;-86
2023/10/29 14:32:36;;;;;;;0.65;0.65;;;;;;;;;;4940757;29;20218;-86
2023/10/29 14:35:07;;;;;;;2.70;0.88;;;;;;;;;;4939948;29;20243;-87
2023/10/29 14:37:36;;;;;;;8.65;5.75;;;;;;;;;;4938079;29;20287;-85
2023/10/29 14:40:07;;;;;;;65.60;23.80;;;;;;;;;;4940468;29;20263;-87
2023/10/29 14:42:35;;;;;;;26.67;10.10;;;;;;;;;;4938978;29;20208;-86
2023/10/29 14:45:06;;;;;;;8.73;4.97;;;;;;;;;;4942117;29;20212;-86
2023/10/29 14:47:39;;;;;;;3.97;1.98;;;;;;;;;;4940565;29;20227;-85
2023/10/29 14:50:13;;;;;;;1.40;1.40;;;;;;;;;;4940307;29;20235;-87
2023/10/29 14:52:43;;;;;;;1.92;1.10;;;;;;;;;;4938512;29;20294;-88
2023/10/29 14:55:13;;;;;;;1.08;1.08;;;;;;;;;;4937668;29;20587;-87
2023/10/29 14:57:43;;;;;;;1.00;1.00;;;;;;;;;;4937209;29;20203;-86
2023/10/29 15:00:16;;;;;;;0.85;0.85;;;;;;;;;;4937724;29;20191;-87
2023/10/29 15:02:44;;;;;;;1.30;1.20;;;;;;;;;;4936943;29;20235;-85
2023/10/29 15:05:13;;;;;;;2.03;1.38;;;;;;;;;;4937372;29;20302;-85
2023/10/29 15:07:42;;;;;;;1.85;1.20;;;;;;;;;;4937617;29;20480;-84
2023/10/29 15:10:13;;;;;;;1.40;1.27;;;;;;;;;;4938336;29;20210;-87
2023/10/29 15:12:43;;;;;;;1.02;0.93;;;;;;;;;;4937838;29;20207;-86